Time;durP1;ratioP1;P1;durP2;ratioP2;P2;SDS_P1;SDS_P2;PMS_P1;PMS_P2;Temp;Humidity;BMP_temperature;BMP_pressure;BME280_temperature;BME280_humidity;BME280_pressure;Samples;Min_cycle;Max_cycle;Signal;HPM_P1;HPM_P2
2022/05/29 00:00:07;;;;;;;1.30;0.20;;;16.40;55.00;;;;;;5115435;28;20472;-67
2022/05/29 00:02:33;;;;;;;1.27;0.30;;;16.40;55.00;;;;;;5115633;28;20114;-67
2022/05/29 00:04:58;;;;;;;0.88;0.20;;;16.40;55.00;;;;;;5113982;28;20486;-68
2022/05/29 00:07:24;;;;;;;1.85;0.30;;;16.40;55.00;;;;;;5114371;28;20037;-67
2022/05/29 00:09:52;;;;;;;1.42;0.20;;;16.40;55.10;;;;;;5114514;28;20388;-67
2022/05/29 00:12:20;;;;;;;0.68;0.20;;;16.40;55.10;;;;;;5114630;28;20054;-68
2022/05/29 00:14:48;;;;;;;1.33;0.20;;;16.40;55.10;;;;;;5113972;28;20496;-69
2022/05/29 00:17:16;;;;;;;1.52;0.40;;;16.40;55.10;;;;;;5114031;28;20040;-69
2022/05/29 00:19:46;;;;;;;1.13;0.20;;;16.40;55.10;;;;;;5114086;28;20498;-67
2022/05/29 00:22:16;;;;;;;1.58;0.30;;;16.30;55.10;;;;;;5114063;28;20082;-67
2022/05/29 00:24:44;;;;;;;2.25;0.45;;;16.40;55.20;;;;;;5114014;28;20044;-67
2022/05/29 00:27:11;;;;;;;1.73;0.22;;;16.30;55.10;;;;;;5113726;28;20039;-69
2022/05/29 00:29:37;;;;;;;2.13;0.43;;;16.30;55.10;;;;;;5113720;28;20039;-69
2022/05/29 00:32:05;;;;;;;1.23;0.20;;;16.30;55.10;;;;;;5113832;28;20115;-67
2022/05/29 00:34:31;;;;;;;0.80;0.20;;;16.30;55.20;;;;;;5115178;28;20043;-67
2022/05/29 00:36:58;;;;;;;1.77;0.20;;;16.30;55.20;;;;;;5113486;28;20113;-65
2022/05/29 00:39:28;;;;;;;1.00;0.30;;;16.30;55.20;;;;;;5113868;28;20364;-67
2022/05/29 00:41:54;;;;;;;0.57;0.10;;;16.30;55.20;;;;;;5113503;28;20040;-67
2022/05/29 00:49:51;;;;;;;1.20;0.20;;;16.30;55.30;;;;;;5153157;27;1158601;-68
2022/05/29 00:52:19;;;;;;;1.17;0.28;;;16.30;55.30;;;;;;5153415;27;20447;-67
2022/05/29 00:54:53;;;;;;;0.85;0.20;;;16.30;55.30;;;;;;5153367;27;20117;-67
2022/05/29 00:57:26;;;;;;;2.35;0.30;;;16.30;55.40;;;;;;5152922;27;20062;-68
2022/05/29 00:59:54;;;;;;;2.95;0.20;;;16.30;55.40;;;;;;5153304;27;20070;-67
2022/05/29 01:02:20;;;;;;;1.35;0.20;;;16.30;55.40;;;;;;5171774;27;20358;-68
2022/05/29 01:04:45;;;;;;;2.45;0.30;;;16.30;55.40;;;;;;5153144;27;20102;-67
2022/05/29 01:07:14;;;;;;;1.38;0.30;;;16.30;55.50;;;;;;5152859;27;20416;-69
2022/05/29 01:09:43;;;;;;;1.05;0.20;;;16.30;55.50;;;;;;5152758;27;20541;-67
2022/05/29 01:12:36;;;;;;;1.13;0.20;;;16.30;55.50;;;;;;5171349;27;20089;-67
2022/05/29 01:15:29;;;;;;;1.17;0.20;;;16.20;55.60;;;;;;5153055;27;20043;-70
2022/05/29 01:18:07;;;;;;;1.17;0.30;;;16.30;55.60;;;;;;5152812;27;20489;-67
2022/05/29 01:31:50;;;;;;;1.35;0.20;;;16.20;55.50;;;;;;5130269;27;20349;-69
2022/05/29 01:34:24;;;;;;;1.25;0.20;;;16.30;55.60;;;;;;5129017;28;20220;-67
2022/05/29 01:42:43;;;;;;;2.05;0.30;;;16.30;55.60;;;;;;5130317;27;20407;-68
2022/05/29 01:50:44;;;;;;;1.67;0.20;;;16.20;55.70;;;;;;5153080;27;1159260;-67
2022/05/29 01:53:15;;;;;;;1.38;0.30;;;16.20;55.80;;;;;;5153398;27;20431;-68
2022/05/29 01:55:47;;;;;;;1.88;0.28;;;16.20;55.70;;;;;;5153027;27;20042;-67
2022/05/29 01:58:19;;;;;;;1.85;0.40;;;16.20;55.80;;;;;;5153301;27;20078;-67
2022/05/29 02:00:47;;;;;;;1.55;0.30;;;16.20;55.80;;;;;;5152975;27;20046;-67
2022/05/29 02:03:17;;;;;;;1.10;0.20;;;16.20;55.80;;;;;;5153005;27;20118;-67
2022/05/29 02:05:48;;;;;;;1.35;0.40;;;16.20;55.80;;;;;;5171522;27;20111;-67
2022/05/29 02:08:21;;;;;;;0.85;0.30;;;16.20;55.90;;;;;;5171476;27;20041;-67
2022/05/29 02:10:54;;;;;;;1.67;0.20;;;16.20;55.90;;;;;;5171368;27;20034;-67
2022/05/29 02:13:27;;;;;;;1.52;0.52;;;16.20;55.90;;;;;;5152757;27;20038;-67
2022/05/29 02:16:29;;;;;;;2.42;0.30;;;16.20;55.90;;;;;;5152929;27;20035;-67
2022/05/29 02:19:08;;;;;;;1.88;0.20;;;16.10;56.00;;;;;;5152919;27;20389;-67
2022/05/29 02:21:48;;;;;;;1.48;0.40;;;16.20;56.00;;;;;;5152732;27;20053;-69
2022/05/29 02:24:18;;;;;;;3.65;0.32;;;16.10;55.90;;;;;;5152818;27;20042;-67
2022/05/29 02:26:50;;;;;;;0.63;0.20;;;16.20;56.00;;;;;;5171147;27;20038;-65
2022/05/29 02:29:16;;;;;;;1.20;0.30;;;16.20;56.00;;;;;;5135223;27;20042;-67
2022/05/29 02:37:49;;;;;;;1.40;0.45;;;16.10;56.00;;;;;;5153352;27;1150724;-69
2022/05/29 02:40:39;;;;;;;1.55;0.30;;;16.10;56.00;;;;;;5153325;27;20050;-67
2022/05/29 02:49:09;;;;;;;2.17;0.30;;;16.20;56.10;;;;;;5151352;27;1205951;-67
2022/05/29 02:51:42;;;;;;;2.20;0.25;;;16.10;56.00;;;;;;5152902;27;20123;-69
2022/05/29 02:54:11;;;;;;;1.27;0.32;;;16.10;56.00;;;;;;5153373;27;20107;-69
2022/05/29 02:56:40;;;;;;;1.35;0.20;;;16.20;56.00;;;;;;5152926;27;20045;-67
2022/05/29 02:59:07;;;;;;;1.77;0.45;;;16.10;56.00;;;;;;5152984;27;20045;-67
2022/05/29 03:01:56;;;;;;;2.05;0.30;;;16.10;56.00;;;;;;5171494;27;20048;-67
2022/05/29 03:24:23;;;;;;;1.10;0.20;;;16.10;56.10;;;;;;5109913;27;20178;-67
2022/05/29 03:30:32;;;;;;;0.73;0.30;;;16.10;56.20;;;;;;5130388;27;20763;-68
2022/05/29 03:33:01;;;;;;;1.95;0.30;;;16.10;56.20;;;;;;5128601;27;20050;-68
2022/05/29 03:35:29;;;;;;;2.50;0.32;;;16.10;56.10;;;;;;5129019;27;20051;-67
2022/05/29 03:38:01;;;;;;;0.88;0.30;;;16.10;56.10;;;;;;5129111;28;20035;-69
2022/05/29 03:40:28;;;;;;;1.42;0.30;;;16.10;56.10;;;;;;5128853;28;20487;-67
2022/05/29 03:42:55;;;;;;;1.20;0.30;;;16.10;56.10;;;;;;5128707;28;20502;-67
2022/05/29 03:45:23;;;;;;;0.88;0.20;;;16.10;56.10;;;;;;5128967;28;20081;-67
2022/05/29 03:47:48;;;;;;;2.15;0.30;;;16.10;56.10;;;;;;5128640;28;20482;-67
2022/05/29 03:50:16;;;;;;;1.10;0.30;;;16.10;56.10;;;;;;5129908;27;20035;-70
2022/05/29 03:52:43;;;;;;;0.93;0.28;;;16.10;56.10;;;;;;5129972;27;20035;-67
2022/05/29 03:55:10;;;;;;;1.38;0.20;;;16.10;56.10;;;;;;5128809;28;20043;-67
2022/05/29 03:57:36;;;;;;;1.25;0.20;;;16.00;56.00;;;;;;5129752;27;20050;-67
2022/05/29 04:00:04;;;;;;;2.05;0.30;;;16.00;56.00;;;;;;5128455;28;20039;-68
2022/05/29 04:02:30;;;;;;;1.15;0.20;;;16.10;56.10;;;;;;5128466;27;20067;-68
2022/05/29 04:04:55;;;;;;;1.30;0.20;;;16.10;56.10;;;;;;5128224;28;20085;-67
2022/05/29 04:12:03;;;;;;;0.73;0.20;;;16.00;56.00;;;;;;5129688;28;20088;-67
2022/05/29 04:12:59;;;;;;;1.42;0.30;;;16.00;56.00;;;;;;5129333;28;20089;-67
2022/05/29 04:15:25;;;;;;;1.45;0.20;;;16.10;56.10;;;;;;5129490;28;20067;-67
2022/05/29 04:17:50;;;;;;;1.77;0.20;;;16.10;56.00;;;;;;5128196;28;20119;-67
2022/05/29 04:20:16;;;;;;;1.20;0.35;;;16.10;56.00;;;;;;5129249;28;20043;-67
2022/05/29 04:22:42;;;;;;;1.08;0.30;;;16.10;56.10;;;;;;5129349;27;20122;-67
2022/05/29 04:25:08;;;;;;;1.40;0.25;;;16.00;56.00;;;;;;5128007;28;20122;-67
2022/05/29 04:27:34;;;;;;;1.10;0.40;;;16.00;56.10;;;;;;5127785;28;20031;-68
2022/05/29 04:30:00;;;;;;;1.42;0.45;;;16.10;56.00;;;;;;5127856;28;20398;-67
2022/05/29 04:35:11;;;;;;;1.70;0.30;;;16.00;56.00;;;;;;5127898;28;20047;-67
2022/05/29 04:37:37;;;;;;;1.23;0.28;;;16.10;56.00;;;;;;5127757;28;20493;-69
2022/05/29 04:40:03;;;;;;;1.25;0.30;;;16.00;56.00;;;;;;5120097;28;20069;-67
2022/05/29 04:42:29;;;;;;;1.23;0.20;;;16.00;56.00;;;;;;5115456;28;20043;-67
2022/05/29 04:44:55;;;;;;;1.10;0.30;;;16.10;56.00;;;;;;5113848;28;20039;-68
2022/05/29 04:47:21;;;;;;;1.13;0.57;;;16.00;56.00;;;;;;5113893;28;20039;-67
2022/05/29 04:49:46;;;;;;;2.13;0.20;;;16.00;56.00;;;;;;5115117;28;20047;-67
2022/05/29 04:52:12;;;;;;;3.25;0.28;;;16.10;56.10;;;;;;5114037;28;20473;-67
2022/05/29 04:54:39;;;;;;;1.58;0.20;;;16.00;56.00;;;;;;5113628;28;20044;-67
2022/05/29 04:57:07;;;;;;;1.23;0.20;;;16.10;56.00;;;;;;5114944;28;20089;-67
2022/05/29 04:59:34;;;;;;;0.43;0.20;;;16.10;56.00;;;;;;5113812;28;20051;-68
2022/05/29 05:02:00;;;;;;;1.27;0.47;;;16.10;56.00;;;;;;5116109;28;20046;-67
2022/05/29 05:04:30;;;;;;;1.27;0.40;;;16.00;56.00;;;;;;5114506;28;20050;-67
2022/05/29 05:06:58;;;;;;;0.80;0.20;;;16.00;56.00;;;;;;5113728;28;20046;-67
2022/05/29 05:09:25;;;;;;;1.50;0.20;;;16.10;56.00;;;;;;5114613;28;20082;-67
2022/05/29 05:11:52;;;;;;;1.05;0.20;;;16.10;56.00;;;;;;5114694;28;20365;-68
2022/05/29 05:14:19;;;;;;;0.80;0.20;;;16.10;56.00;;;;;;5113710;28;20085;-68
2022/05/29 05:16:46;;;;;;;1.35;0.30;;;16.10;55.90;;;;;;5114491;28;20604;-67
2022/05/29 05:19:12;;;;;;;0.82;0.20;;;16.10;55.90;;;;;;5113338;28;20126;-67
2022/05/29 05:21:37;;;;;;;1.35;0.30;;;16.10;55.90;;;;;;5114470;28;20628;-67
2022/05/29 05:24:04;;;;;;;2.35;0.35;;;16.10;55.90;;;;;;5113236;28;20039;-67
2022/05/29 05:26:30;;;;;;;2.08;0.40;;;16.10;55.80;;;;;;5113226;28;20070;-68
2022/05/29 05:28:56;;;;;;;2.28;0.30;;;16.10;55.80;;;;;;5112849;28;20083;-67
2022/05/29 05:31:23;;;;;;;1.65;0.22;;;16.10;55.80;;;;;;5114329;28;20047;-67
2022/05/29 05:33:48;;;;;;;1.85;0.30;;;16.10;55.70;;;;;;5113221;28;20399;-67
2022/05/29 05:36:15;;;;;;;0.65;0.20;;;16.10;55.70;;;;;;5113206;28;20039;-67
2022/05/29 05:38:41;;;;;;;1.02;0.20;;;16.10;55.70;;;;;;5112855;28;20493;-67
2022/05/29 05:41:11;;;;;;;1.98;0.52;;;16.10;55.70;;;;;;5112781;28;20043;-67
2022/05/29 05:43:37;;;;;;;1.95;0.40;;;16.10;55.70;;;;;;5113216;28;20399;-66
2022/05/29 05:46:12;;;;;;;2.90;0.32;;;16.10;55.70;;;;;;5114130;28;20032;-67
2022/05/29 05:48:39;;;;;;;1.08;0.20;;;16.20;55.70;;;;;;5114044;28;20069;-67
2022/05/29 05:51:05;;;;;;;2.10;0.35;;;16.10;55.70;;;;;;5113146;28;20092;-67
2022/05/29 05:53:32;;;;;;;2.65;0.35;;;16.20;55.70;;;;;;5112332;28;20043;-67
2022/05/29 05:55:58;;;;;;;1.60;0.20;;;16.10;55.60;;;;;;5113775;28;20044;-69
2022/05/29 05:58:24;;;;;;;1.98;0.68;;;16.10;55.50;;;;;;5112414;28;20039;-67
2022/05/29 06:00:50;;;;;;;2.00;0.60;;;16.20;55.60;;;;;;5112508;28;20045;-67
2022/05/29 06:03:18;;;;;;;1.10;0.40;;;16.20;55.60;;;;;;5112627;28;20054;-68
2022/05/29 06:05:44;;;;;;;1.05;0.28;;;16.20;55.50;;;;;;5112647;28;20043;-67
2022/05/29 06:08:10;;;;;;;1.95;0.40;;;16.20;55.50;;;;;;5112201;28;20044;-67
2022/05/29 06:10:35;;;;;;;0.77;0.20;;;16.20;55.40;;;;;;5112277;28;20049;-68
2022/05/29 06:13:02;;;;;;;2.17;0.30;;;16.20;55.40;;;;;;5112271;28;20043;-68
2022/05/29 06:15:28;;;;;;;2.65;0.52;;;16.30;55.40;;;;;;5112426;28;20050;-66
2022/05/29 06:17:54;;;;;;;1.58;0.30;;;16.30;55.30;;;;;;5112243;28;20039;-68
2022/05/29 06:20:24;;;;;;;1.42;0.20;;;16.20;55.30;;;;;;5112309;28;20054;-67
2022/05/29 06:22:50;;;;;;;1.97;0.30;;;16.20;55.30;;;;;;5111992;28;20047;-68
2022/05/29 06:25:15;;;;;;;2.45;0.30;;;16.20;55.20;;;;;;5113236;28;20343;-67
2022/05/29 06:27:43;;;;;;;1.88;0.20;;;16.20;55.20;;;;;;5111474;28;21421;-67
2022/05/29 06:30:12;;;;;;;1.52;0.20;;;16.20;55.20;;;;;;5113272;28;20031;-67
2022/05/29 06:32:38;;;;;;;1.83;0.28;;;16.30;55.20;;;;;;5112027;28;20061;-67
2022/05/29 06:35:05;;;;;;;1.77;0.30;;;16.30;55.20;;;;;;5112137;28;20043;-68
2022/05/29 06:37:31;;;;;;;0.80;0.30;;;16.30;55.10;;;;;;5112083;28;20122;-66
2022/05/29 06:39:58;;;;;;;2.25;0.40;;;16.30;55.10;;;;;;5112885;28;20444;-69
2022/05/29 06:42:23;;;;;;;2.95;0.30;;;16.30;55.10;;;;;;5112001;28;20043;-67
2022/05/29 06:44:49;;;;;;;3.15;0.30;;;16.30;55.10;;;;;;5112884;28;20437;-69
2022/05/29 06:47:15;;;;;;;1.27;0.30;;;16.30;55.10;;;;;;5112983;28;20431;-67
2022/05/29 06:49:41;;;;;;;2.67;0.35;;;16.30;55.10;;;;;;5112719;28;20036;-67
2022/05/29 06:52:08;;;;;;;1.15;0.20;;;16.30;55.50;;;;;;5112799;28;20114;-67
2022/05/29 06:54:35;;;;;;;1.45;0.20;;;16.30;55.10;;;;;;5111349;28;20065;-69
2022/05/29 06:57:00;;;;;;;1.27;0.15;;;16.40;55.10;;;;;;5111670;28;20047;-69
2022/05/29 06:59:26;;;;;;;1.35;0.20;;;16.30;55.80;;;;;;5111588;28;20051;-67
2022/05/29 07:07:23;;;;;;;1.70;0.20;;;16.30;55.10;;;;;;5111110;28;20474;-68
2022/05/29 07:09:49;;;;;;;1.92;0.20;;;16.30;55.10;;;;;;5112375;28;20058;-67
2022/05/29 07:12:20;;;;;;;1.73;0.40;;;16.30;55.10;;;;;;5111248;28;20035;-67
2022/05/29 07:14:52;;;;;;;1.48;0.25;;;16.30;55.10;;;;;;5111164;28;20115;-67
2022/05/29 07:17:22;;;;;;;0.63;0.20;;;16.30;55.10;;;;;;5111436;28;20052;-67
2022/05/29 07:19:48;;;;;;;1.30;0.20;;;16.30;55.10;;;;;;5111227;28;20044;-67
2022/05/29 07:22:14;;;;;;;1.33;0.40;;;16.30;55.80;;;;;;5112377;28;20101;-67
2022/05/29 07:24:40;;;;;;;1.15;0.20;;;16.30;55.10;;;;;;5111317;28;20039;-68
2022/05/29 07:27:07;;;;;;;0.80;0.20;;;16.30;55.10;;;;;;5111248;28;20101;-67
2022/05/29 07:29:33;;;;;;;0.68;0.13;;;16.30;55.10;;;;;;5111715;28;20432;-67
2022/05/29 07:31:58;;;;;;;1.83;0.35;;;16.30;55.00;;;;;;5110934;28;20127;-67
2022/05/29 07:34:25;;;;;;;1.13;0.20;;;16.30;54.90;;;;;;5110899;28;20122;-67
2022/05/29 07:36:52;;;;;;;1.40;0.22;;;16.40;55.60;;;;;;5112293;28;20115;-67
2022/05/29 07:39:19;;;;;;;0.65;0.20;;;16.40;54.90;;;;;;5111172;28;20047;-68
2022/05/29 07:44:33;;;;;;;1.77;0.20;;;16.40;54.80;;;;;;5111990;28;20050;-67
2022/05/29 07:46:59;;;;;;;1.00;0.20;;;16.40;54.80;;;;;;5112000;28;20036;-67
2022/05/29 07:49:25;;;;;;;1.05;0.20;;;16.40;54.80;;;;;;5110851;28;20463;-67
2022/05/29 07:51:50;;;;;;;1.27;0.30;;;16.40;54.80;;;;;;5112190;28;20042;-69
2022/05/29 07:54:17;;;;;;;1.63;0.20;;;16.40;54.80;;;;;;5111075;28;20058;-67
2022/05/29 07:56:42;;;;;;;1.13;0.50;;;16.40;54.70;;;;;;5110775;28;20493;-67
2022/05/29 07:59:08;;;;;;;1.58;0.20;;;16.40;54.70;;;;;;5110752;28;20043;-68
2022/05/29 08:01:34;;;;;;;2.72;0.40;;;16.50;54.70;;;;;;5110648;28;20046;-67
2022/05/29 08:03:59;;;;;;;1.02;0.32;;;16.40;54.60;;;;;;5110793;28;20122;-67
2022/05/29 08:06:26;;;;;;;1.25;0.30;;;16.50;54.60;;;;;;5110946;28;20124;-67
2022/05/29 08:08:52;;;;;;;1.38;0.20;;;16.50;54.60;;;;;;5112009;28;20043;-67
2022/05/29 08:11:18;;;;;;;2.22;0.20;;;16.50;54.40;;;;;;5110702;28;20391;-67
2022/05/29 08:13:44;;;;;;;2.05;0.40;;;16.50;54.40;;;;;;5110684;28;20035;-68
2022/05/29 08:16:10;;;;;;;1.60;0.30;;;16.50;54.30;;;;;;5113686;28;20039;-67
2022/05/29 08:18:36;;;;;;;1.77;0.20;;;16.50;54.20;;;;;;5115752;28;20052;-67
2022/05/29 08:21:02;;;;;;;1.45;0.30;;;16.60;54.20;;;;;;5115783;28;20120;-68
2022/05/29 08:23:27;;;;;;;1.35;0.20;;;16.60;54.10;;;;;;5114584;28;20611;-67
2022/05/29 08:31:25;;;;;;;2.20;0.30;;;16.70;53.80;;;;;;5151410;27;1210345;-67
2022/05/29 08:33:50;;;;;;;1.58;0.20;;;16.70;53.70;;;;;;5153099;27;20046;-67
2022/05/29 08:36:22;;;;;;;1.70;0.20;;;16.70;53.70;;;;;;5136056;27;20042;-67
2022/05/29 08:38:51;;;;;;;1.45;0.20;;;16.70;53.70;;;;;;5153367;27;20034;-69
2022/05/29 08:41:22;;;;;;;1.08;0.17;;;16.70;53.70;;;;;;5153022;27;20113;-68
2022/05/29 08:44:04;;;;;;;1.15;0.20;;;16.70;53.70;;;;;;5153029;27;20078;-67
2022/05/29 08:46:40;;;;;;;2.53;0.30;;;16.70;53.70;;;;;;5153188;27;20081;-67
2022/05/29 08:49:11;;;;;;;2.08;0.45;;;16.70;53.70;;;;;;5152730;27;20073;-67
2022/05/29 08:52:16;;;;;;;1.48;0.30;;;16.70;53.70;;;;;;5152863;27;20050;-68
2022/05/29 09:00:44;;;;;;;3.28;0.30;;;16.60;53.70;;;;;;5130142;27;20755;-67
2022/05/29 09:05:58;;;;;;;1.33;0.50;;;16.60;53.80;;;;;;5130387;27;20346;-67
2022/05/29 09:08:29;;;;;;;2.13;0.20;;;16.50;53.80;;;;;;5128937;28;20415;-67
2022/05/29 09:11:01;;;;;;;0.88;0.10;;;16.60;53.90;;;;;;5128898;28;20050;-67
2022/05/29 09:13:37;;;;;;;2.03;0.25;;;16.50;53.80;;;;;;5130206;27;20092;-68
2022/05/29 09:16:11;;;;;;;1.50;0.38;;;16.60;53.90;;;;;;5129097;27;20470;-68
2022/05/29 09:18:40;;;;;;;1.38;0.30;;;16.60;53.80;;;;;;5128824;28;20056;-68
2022/05/29 09:21:13;;;;;;;1.05;0.17;;;16.60;53.70;;;;;;5128764;28;20048;-66
2022/05/29 09:24:03;;;;;;;0.82;0.20;;;16.70;53.60;;;;;;5129818;27;20031;-67
2022/05/29 09:26:35;;;;;;;1.73;0.20;;;16.70;53.40;;;;;;5129866;27;20065;-68
2022/05/29 09:29:01;;;;;;;1.95;0.20;;;16.80;53.40;;;;;;5128858;28;20491;-67
2022/05/29 09:31:27;;;;;;;0.63;0.10;;;16.70;53.30;;;;;;5128609;28;20045;-68
2022/05/29 09:33:53;;;;;;;2.47;0.30;;;16.70;53.30;;;;;;5128444;28;20208;-67
2022/05/29 09:42:21;;;;;;;1.20;0.20;;;16.80;53.10;;;;;;5130315;27;20423;-67
2022/05/29 09:45:05;;;;;;;1.42;0.10;;;16.80;53.00;;;;;;5128643;28;20051;-68
2022/05/29 09:50:18;;;;;;;1.63;0.22;;;16.80;53.00;;;;;;5129022;28;20559;-67
2022/05/29 09:52:45;;;;;;;0.77;0.20;;;16.90;52.90;;;;;;5130138;27;20039;-66
2022/05/29 09:58:00;;;;;;;1.45;0.13;;;16.80;52.90;;;;;;5089461;28;20492;-68
2022/05/29 10:00:37;;;;;;;1.38;0.20;;;16.90;52.80;;;;;;5088138;28;20087;-67
2022/05/29 10:03:06;;;;;;;2.83;0.20;;;16.90;52.80;;;;;;5088054;28;20051;-67
2022/05/29 10:05:39;;;;;;;1.27;0.10;;;16.80;52.80;;;;;;5089275;28;20058;-67
2022/05/29 10:11:14;;;;;;;2.03;0.20;;;16.80;52.90;;;;;;5110184;27;20424;-68
2022/05/29 10:13:41;;;;;;;1.23;0.15;;;16.80;53.00;;;;;;5108504;28;20044;-65
2022/05/29 10:16:08;;;;;;;1.63;0.15;;;16.70;53.00;;;;;;5108615;28;20407;-68
2022/05/29 10:18:38;;;;;;;1.40;0.15;;;16.70;53.00;;;;;;5108693;28;20493;-67
2022/05/29 10:21:21;;;;;;;0.63;0.20;;;16.70;53.00;;;;;;5108535;28;20054;-65
2022/05/29 10:23:53;;;;;;;0.50;0.10;;;16.70;53.00;;;;;;5109630;28;20097;-67
2022/05/29 10:26:36;;;;;;;1.95;0.30;;;16.80;53.00;;;;;;5108174;28;20092;-64
2022/05/29 10:29:15;;;;;;;2.38;0.30;;;16.80;52.90;;;;;;5107993;28;20044;-67
2022/05/29 10:31:41;;;;;;;1.95;0.20;;;16.70;52.90;;;;;;5108107;28;20119;-67
2022/05/29 10:34:13;;;;;;;1.75;0.20;;;16.70;52.90;;;;;;5108449;28;20043;-67
2022/05/29 10:36:40;;;;;;;0.65;0.10;;;16.70;53.00;;;;;;5108298;28;20119;-67
2022/05/29 10:39:10;;;;;;;0.80;0.10;;;16.70;53.00;;;;;;5107913;28;20526;-67
2022/05/29 10:41:39;;;;;;;1.55;0.20;;;16.70;53.10;;;;;;5107990;28;20071;-67
2022/05/29 10:44:06;;;;;;;1.10;0.20;;;16.60;53.10;;;;;;5108185;28;20043;-67
2022/05/29 10:46:54;;;;;;;0.77;0.10;;;16.60;53.20;;;;;;5107809;28;20050;-65
2022/05/29 10:49:29;;;;;;;0.73;0.10;;;16.60;53.20;;;;;;5109001;28;20083;-69
2022/05/29 10:55:11;;;;;;;1.30;0.20;;;16.60;53.20;;;;;;5153138;27;1158710;-66
2022/05/29 11:03:18;;;;;;;1.05;0.30;;;16.70;53.20;;;;;;5109788;27;20354;-68
2022/05/29 11:06:23;;;;;;;1.15;0.20;;;16.70;53.10;;;;;;5108818;28;20093;-68
2022/05/29 11:20:38;;;;;;;0.88;0.20;;;16.60;53.10;;;;;;5152584;27;1171261;-66
2022/05/29 11:31:59;;;;;;;0.98;0.20;;;16.70;53.20;;;;;;5150854;27;20425;-67
2022/05/29 11:40:20;;;;;;;2.92;0.13;;;16.70;53.10;;;;;;5130297;27;20436;-67
2022/05/29 11:51:28;;;;;;;0.77;0.10;;;17.00;52.50;;;;;;5087934;28;20058;-67
2022/05/29 11:56:47;;;;;;;0.63;0.10;;;17.00;52.30;;;;;;5089433;28;20360;-67
2022/05/29 12:02:18;;;;;;;0.73;0.10;;;17.10;52.10;;;;;;5152987;27;1162377;-67
2022/05/29 12:04:55;;;;;;;0.85;0.10;;;17.10;52.00;;;;;;5153078;27;20035;-67
2022/05/29 12:07:36;;;;;;;0.68;0.10;;;17.10;52.00;;;;;;5153016;27;20045;-69
2022/05/29 12:12:53;;;;;;;0.70;0.20;;;17.10;51.80;;;;;;5154335;27;1178084;-67
2022/05/29 12:15:21;;;;;;;1.75;0.40;;;17.10;51.80;;;;;;5153078;27;20121;-68
2022/05/29 12:18:07;;;;;;;0.77;0.13;;;17.10;51.90;;;;;;5153327;27;20401;-67
2022/05/29 12:26:01;;;;;;;0.88;0.10;;;17.10;51.90;;;;;;5130239;27;20387;-69
2022/05/29 12:28:44;;;;;;;1.00;0.10;;;17.00;52.20;;;;;;5111857;27;20043;-67
2022/05/29 12:31:33;;;;;;;1.48;0.10;;;16.90;52.20;;;;;;5130424;27;20058;-69
2022/05/29 12:34:02;;;;;;;1.92;0.10;;;16.90;52.40;;;;;;5128883;28;20479;-69
2022/05/29 13:04:51;;;;;;;0.55;0.10;;;16.80;52.50;;;;;;5130242;27;20415;-67
2022/05/29 13:10:17;;;;;;;1.13;0.13;;;16.70;52.40;;;;;;5109759;27;20456;-67
2022/05/29 13:15:31;;;;;;;1.15;0.20;;;16.80;52.40;;;;;;5130324;27;20414;-68
2022/05/29 13:23:57;;;;;;;1.10;0.10;;;16.80;52.40;;;;;;5153009;27;1161818;-66
2022/05/29 13:26:31;;;;;;;1.40;0.20;;;16.80;52.50;;;;;;5153109;27;20054;-66
2022/05/29 13:29:05;;;;;;;1.73;0.17;;;16.70;52.50;;;;;;5153283;27;20039;-68
2022/05/29 13:31:34;;;;;;;0.40;0.10;;;16.70;52.60;;;;;;5152969;27;20114;-67
2022/05/29 13:34:24;;;;;;;1.48;0.17;;;16.70;52.60;;;;;;5153264;27;20042;-67
2022/05/29 13:42:24;;;;;;;1.27;0.20;;;16.70;52.60;;;;;;5130371;27;20424;-68
2022/05/29 13:44:50;;;;;;;1.48;0.20;;;16.60;52.80;;;;;;5128967;28;20579;-67
2022/05/29 13:52:59;;;;;;;1.85;0.20;;;16.60;52.80;;;;;;5130257;27;20781;-67
2022/05/29 14:04:14;;;;;;;2.67;0.20;;;16.60;52.70;;;;;;5130235;27;20418;-67
2022/05/29 14:06:43;;;;;;;1.25;0.10;;;16.60;52.70;;;;;;5129076;28;20044;-67
2022/05/29 14:23:27;;;;;;;1.27;0.38;;;16.60;52.70;;;;;;5130321;27;20358;-67
2022/05/29 14:31:47;;;;;;;2.80;0.20;;;16.60;52.70;;;;;;5130545;27;20197;-68
2022/05/29 14:50:54;;;;;;;1.70;0.10;;;16.70;52.50;;;;;;5130240;27;20414;-67
2022/05/29 14:53:32;;;;;;;2.78;0.28;;;16.70;52.50;;;;;;5128907;28;20047;-67
2022/05/29 14:56:02;;;;;;;1.58;0.10;;;16.70;52.50;;;;;;5128845;28;20505;-67
2022/05/29 14:58:37;;;;;;;1.25;0.10;;;16.70;52.60;;;;;;5128933;28;20054;-68
2022/05/29 15:03:49;;;;;;;1.25;0.10;;;16.60;52.60;;;;;;5130239;27;20417;-67
2022/05/29 15:12:27;;;;;;;1.25;0.20;;;16.60;52.90;;;;;;5129943;28;20043;-68
2022/05/29 15:15:23;;;;;;;2.25;0.17;;;16.60;52.90;;;;;;5128787;28;20212;-67
2022/05/29 15:17:50;;;;;;;1.90;0.17;;;16.60;52.90;;;;;;5128674;28;20047;-67
2022/05/29 15:25:41;;;;;;;1.10;0.10;;;16.50;52.90;;;;;;5088238;28;20048;-67
2022/05/29 15:28:08;;;;;;;0.80;0.10;;;16.50;52.90;;;;;;5087964;28;20372;-69
2022/05/29 15:30:40;;;;;;;0.70;0.10;;;16.50;52.90;;;;;;5089354;28;20456;-69
2022/05/29 15:33:10;;;;;;;3.35;0.20;;;16.50;53.00;;;;;;5088231;28;20123;-67
2022/05/29 15:38:52;;;;;;;1.80;0.28;;;16.50;53.00;;;;;;5130368;27;20885;-68
2022/05/29 15:55:50;;;;;;;0.98;0.10;;;16.50;53.00;;;;;;5130347;27;20358;-68
2022/05/29 16:02:11;;;;;;;2.47;0.20;;;16.50;53.00;;;;;;5130324;27;20407;-68
2022/05/29 16:07:37;;;;;;;1.88;0.20;;;16.50;52.90;;;;;;5130264;27;20354;-66
2022/05/29 16:10:10;;;;;;;1.55;0.20;;;16.50;52.90;;;;;;5128830;28;20075;-69
2022/05/29 16:12:46;;;;;;;4.97;0.40;;;16.50;52.90;;;;;;5129263;28;20040;-67
2022/05/29 16:15:13;;;;;;;1.25;0.32;;;16.40;52.90;;;;;;5128795;27;20487;-67
2022/05/29 16:23:12;;;;;;;1.27;0.20;;;16.50;53.00;;;;;;5130315;27;20440;-67
2022/05/29 16:25:49;;;;;;;0.50;0.20;;;16.40;53.00;;;;;;5128996;28;20050;-67
2022/05/29 16:28:25;;;;;;;2.65;0.28;;;16.50;53.00;;;;;;5128890;27;20036;-67
2022/05/29 16:33:54;;;;;;;2.20;0.28;;;16.50;53.00;;;;;;5153075;27;1161153;-67
2022/05/29 16:48:07;;;;;;;1.95;0.30;;;16.40;53.10;;;;;;5128685;27;20097;-68
2022/05/29 16:50:36;;;;;;;2.40;0.20;;;16.30;53.10;;;;;;5129074;27;20040;-67
2022/05/29 16:53:14;;;;;;;2.33;0.32;;;16.30;53.10;;;;;;5128625;28;20043;-68
2022/05/29 16:55:47;;;;;;;2.05;0.60;;;16.30;53.10;;;;;;5128971;28;20096;-68
2022/05/29 16:58:34;;;;;;;1.23;0.30;;;16.30;53.20;;;;;;5128614;28;20495;-68
2022/05/29 17:01:18;;;;;;;2.90;0.10;;;16.30;53.20;;;;;;5128860;28;20047;-67
2022/05/29 17:04:19;;;;;;;1.58;0.25;;;16.30;53.20;;;;;;5128524;28;20044;-68
2022/05/29 17:06:53;;;;;;;1.58;0.10;;;16.30;53.30;;;;;;5128414;28;20043;-67
2022/05/29 17:09:43;;;;;;;2.72;0.22;;;16.30;53.30;;;;;;5128622;28;20043;-68
2022/05/29 17:12:09;;;;;;;1.07;0.10;;;16.30;53.30;;;;;;5129985;28;20481;-68
2022/05/29 17:14:35;;;;;;;2.00;0.20;;;16.30;53.40;;;;;;5128547;28;20300;-68
2022/05/29 17:17:01;;;;;;;0.45;0.10;;;16.30;53.40;;;;;;5128497;28;20409;-66
2022/05/29 17:19:30;;;;;;;2.08;0.20;;;16.30;53.40;;;;;;5129589;28;20388;-68
2022/05/29 17:22:05;;;;;;;2.53;0.47;;;16.30;53.40;;;;;;5128227;28;20039;-67
2022/05/29 17:35:29;;;;;;;0.63;0.10;;;16.30;53.50;;;;;;5130275;27;20410;-67
2022/05/29 17:40:40;;;;;;;1.00;0.15;;;16.20;53.50;;;;;;5130298;27;20599;-68
2022/05/29 17:43:06;;;;;;;1.13;0.15;;;16.20;53.60;;;;;;5146266;27;20405;-68
2022/05/29 17:45:36;;;;;;;1.05;0.20;;;16.20;53.60;;;;;;5129067;28;20470;-68
2022/05/29 17:48:36;;;;;;;1.13;0.28;;;16.20;53.60;;;;;;5129265;28;20039;-67
2022/05/29 17:54:17;;;;;;;2.35;0.30;;;16.20;53.60;;;;;;5130555;27;20788;-68
2022/05/29 17:56:43;;;;;;;0.90;0.30;;;16.20;53.70;;;;;;5130021;28;20051;-67
2022/05/29 17:59:09;;;;;;;1.02;0.10;;;16.20;53.70;;;;;;5129602;28;20051;-68
2022/05/29 18:01:35;;;;;;;1.92;0.10;;;16.10;53.70;;;;;;5129244;28;20119;-67
2022/05/29 18:04:04;;;;;;;1.25;0.20;;;16.10;54.00;;;;;;5128268;27;20039;-69
2022/05/29 18:06:29;;;;;;;1.17;0.40;;;16.10;53.80;;;;;;5128593;27;20122;-67
2022/05/29 18:08:55;;;;;;;1.65;0.10;;;16.10;53.70;;;;;;5128985;28;20122;-65
2022/05/29 18:11:24;;;;;;;2.05;0.10;;;16.10;53.80;;;;;;5111680;28;20049;-68
2022/05/29 18:13:49;;;;;;;1.10;0.20;;;16.10;53.80;;;;;;5129981;27;20050;-68
2022/05/29 18:16:15;;;;;;;0.88;0.20;;;16.10;53.80;;;;;;5129846;28;20031;-67
2022/05/29 18:18:41;;;;;;;2.00;0.25;;;16.10;53.90;;;;;;5128945;28;20039;-68
2022/05/29 18:21:07;;;;;;;2.42;0.28;;;16.00;53.90;;;;;;5128353;28;20035;-67
2022/05/29 18:23:35;;;;;;;1.73;0.20;;;16.10;53.90;;;;;;5128512;27;20043;-68
2022/05/29 18:26:02;;;;;;;1.15;0.10;;;16.10;53.90;;;;;;5129827;27;20114;-67
2022/05/29 18:28:28;;;;;;;1.23;0.10;;;16.10;53.90;;;;;;5129812;27;20095;-67
2022/05/29 18:30:54;;;;;;;1.52;0.30;;;16.10;53.90;;;;;;5128274;28;20130;-69
2022/05/29 18:33:20;;;;;;;1.02;0.30;;;16.00;53.90;;;;;;5129530;27;20036;-68
2022/05/29 18:35:49;;;;;;;1.70;0.15;;;16.10;54.00;;;;;;5128168;27;20593;-68